Terminal Aerodrome Forecast
Issued by NWS

Home | Current Version | Previous Version | Graphics & Text | Print | Product List | Glossary On
Versions: 1 2 3 4 5 6 7 8 9 10 11 12 13 14 15 16 17
000
FTUS43 KGRB 242335
TAFCWA
TAF
KCWA 242335Z 2500/2524 36014G22KT 4SM -SN OVC015
      TEMPO 2500/2502 2SM -SN BR
     FM250200 35014G22KT 3SM -SN OVC015
     FM250900 32012G20KT P6SM -SN SCT015 OVC025 PROB30 2509/2513 4SM
      -SN BKN015
     FM251400 31014G22KT P6SM SCT020 OVC040=

USA.gov is the U.S. government's official web portal to all federal, state and local government web resources and services.